Time;durP1;ratioP1;P1;durP2;ratioP2;P2;SDS_P1;SDS_P2;PMS_P1;PMS_P2;Temp;Humidity;BMP_temperature;BMP_pressure;BME280_temperature;BME280_humidity;BME280_pressure;Samples;Min_cycle;Max_cycle;Signal;HPM_P1;HPM_P2
2022/05/23 00:02:16;;;;;;;5.47;3.88;;;;;;;18.98;55.57;94608.22;5064516;28;20374;-72
2022/05/23 00:04:43;;;;;;;4.00;3.75;;;;;;;19.09;55.48;94628.00;5063332;28;20213;-73
2022/05/23 00:07:22;;;;;;;4.13;3.90;;;;;;;19.08;55.42;94628.94;5062902;28;20202;-73
2022/05/23 00:09:49;;;;;;;3.80;3.60;;;;;;;19.00;55.34;94632.09;5062164;28;20236;-71
2022/05/23 00:12:16;;;;;;;4.55;3.88;;;;;;;18.90;55.69;94626.78;5062918;28;20593;-72
2022/05/23 00:14:43;;;;;;;3.92;3.63;;;;;;;18.99;55.42;94618.41;5062708;28;20290;-72
2022/05/23 00:17:13;;;;;;;4.00;3.80;;;;;;;18.88;55.55;94618.38;5063296;28;20716;-73
2022/05/23 00:19:40;;;;;;;3.70;3.40;;;;;;;18.88;55.65;94623.50;5062973;28;20201;-72
2022/05/23 00:22:07;;;;;;;3.90;3.70;;;;;;;18.81;55.71;94619.72;5062294;28;20238;-72
2022/05/23 00:24:34;;;;;;;3.50;3.30;;;;;;;18.73;55.86;94622.06;5061837;28;20198;-73
2022/05/23 00:27:01;;;;;;;4.75;4.45;;;;;;;18.82;55.49;94618.81;5063406;28;20202;-73
2022/05/23 00:29:28;;;;;;;4.45;4.15;;;;;;;18.80;55.54;94612.16;5063625;28;20295;-72
2022/05/23 00:37:25;;;;;;;7.47;5.20;;;;;;;19.00;55.14;94609.75;5062207;28;20707;-72
2022/05/23 00:39:51;;;;;;;5.32;4.82;;;;;;;19.05;55.12;94609.41;5062085;28;20288;-72
2022/05/23 00:45:07;;;;;;;5.35;4.95;;;;;;;19.18;54.44;94622.19;5062074;28;20225;-71
2022/05/23 00:47:34;;;;;;;4.40;4.10;;;;;;;18.95;55.19;94616.16;5061908;28;20230;-73
2022/05/23 00:50:04;;;;;;;4.82;4.40;;;;;;;18.77;55.74;94615.75;5062427;28;20259;-72
2022/05/23 00:52:37;;;;;;;4.05;3.70;;;;;;;18.72;55.83;94623.00;5063638;28;20200;-73
2022/05/23 00:55:07;;;;;;;4.47;4.07;;;;;;;18.74;55.72;94623.72;5062399;28;20210;-73
2022/05/23 00:57:38;;;;;;;3.92;3.72;;;;;;;18.59;56.08;94629.91;5062119;28;21767;-74
2022/05/23 01:00:08;;;;;;;4.82;4.53;;;;;;;18.46;56.36;94624.84;5061284;28;20204;-72
2022/05/23 01:02:36;;;;;;;4.20;3.90;;;;;;;18.33;56.49;94635.16;5061924;28;20593;-72
2022/05/23 01:05:06;;;;;;;3.88;3.67;;;;;;;18.17;57.12;94624.31;5061663;28;22164;-73
2022/05/23 01:07:33;;;;;;;4.10;3.80;;;;;;;18.25;57.14;94632.31;5061929;28;20229;-72
2022/05/23 01:10:00;;;;;;;4.40;3.92;;;;;;;18.35;56.82;94633.31;5061848;28;20201;-72
2022/05/23 01:12:28;;;;;;;4.07;3.65;;;;;;;18.23;57.20;94634.19;5062599;28;20198;-73
2022/05/23 01:14:57;;;;;;;4.28;3.97;;;;;;;18.13;57.41;94622.06;5061821;28;20665;-73
2022/05/23 01:17:25;;;;;;;4.22;3.83;;;;;;;18.14;57.68;94624.53;5062138;28;20205;-72
2022/05/23 01:19:52;;;;;;;5.00;3.40;;;;;;;18.17;57.54;94626.88;5060865;28;20202;-73
2022/05/23 01:22:27;;;;;;;5.00;4.20;;;;;;;18.35;56.88;94609.31;5062724;28;20262;-72
2022/05/23 01:25:06;;;;;;;3.65;3.38;;;;;;;18.30;56.76;94609.69;5061498;28;20255;-73
2022/05/23 01:27:37;;;;;;;4.05;3.75;;;;;;;17.98;57.69;94598.25;5062150;28;20737;-73
2022/05/23 01:30:05;;;;;;;3.63;3.42;;;;;;;18.02;57.79;94610.78;5061404;28;20205;-74
2022/05/23 01:32:32;;;;;;;4.00;3.70;;;;;;;18.10;57.70;94607.66;5061959;28;20249;-72
2022/05/23 01:34:58;;;;;;;10.48;4.22;;;;;;;18.10;57.34;94584.53;5062010;28;20194;-73
2022/05/23 01:37:26;;;;;;;4.20;3.85;;;;;;;18.29;57.27;94602.06;5061745;28;20292;-72
2022/05/23 01:39:53;;;;;;;5.75;4.20;;;;;;;18.32;56.52;94582.06;5059972;28;20627;-73
2022/05/23 01:42:19;;;;;;;4.03;3.70;;;;;;;18.41;56.70;94605.50;5061857;28;20258;-73
2022/05/23 01:44:47;;;;;;;4.18;3.88;;;;;;;18.40;56.61;94604.69;5060822;28;20194;-73
2022/05/23 01:47:17;;;;;;;4.47;4.05;;;;;;;18.48;56.44;94599.81;5062274;28;20198;-72
2022/05/23 01:49:43;;;;;;;4.50;4.10;;;;;;;18.42;56.88;94613.13;5065039;28;20230;-73
2022/05/23 01:52:11;;;;;;;5.57;4.03;;;;;;;18.29;56.91;94608.03;5065681;28;20400;-72
2022/05/23 01:54:39;;;;;;;4.15;3.95;;;;;;;18.11;57.52;94608.47;5066130;28;20615;-73
2022/05/23 01:57:07;;;;;;;4.50;4.22;;;;;;;18.08;57.63;94603.56;5066341;28;20619;-73
2022/05/23 02:02:21;;;;;;;4.28;3.97;;;;;;;18.12;57.47;94605.81;5065049;28;20230;-72
2022/05/23 02:04:48;;;;;;;4.63;4.22;;;;;;;17.78;58.42;94612.50;5065315;28;20879;-72
2022/05/23 02:07:15;;;;;;;5.18;4.63;;;;;;;17.76;58.47;94608.38;5065696;28;20991;-72
2022/05/23 02:09:42;;;;;;;4.75;4.30;;;;;;;17.90;58.25;94615.94;5066169;28;20225;-72
2022/05/23 02:12:11;;;;;;;5.07;4.07;;;;;;;18.11;57.54;94614.44;5066397;28;20194;-73
2022/05/23 02:14:38;;;;;;;8.05;4.30;;;;;;;17.97;58.08;94607.72;5065333;28;20757;-72
2022/05/23 02:17:08;;;;;;;4.50;4.20;;;;;;;17.92;58.04;94598.66;5065151;28;20202;-73
2022/05/23 02:19:37;;;;;;;4.47;4.18;;;;;;;17.95;58.13;94601.03;5065060;28;20209;-72
2022/05/23 02:22:04;;;;;;;5.00;4.57;;;;;;;17.86;58.30;94604.22;5064937;28;20749;-72
2022/05/23 02:24:31;;;;;;;4.82;4.38;;;;;;;17.68;58.90;94607.16;5064843;28;20206;-72
2022/05/23 02:26:58;;;;;;;4.68;3.70;;;;;;;17.42;60.40;94615.78;5065579;28;20278;-72
2022/05/23 02:29:26;;;;;;;6.10;4.47;;;;;;;17.20;61.43;94600.16;5065197;28;21956;-73
2022/05/23 02:31:52;;;;;;;4.40;4.03;;;;;;;17.57;60.17;94599.31;5064640;28;20222;-73
2022/05/23 02:34:19;;;;;;;5.05;4.70;;;;;;;17.86;59.71;94606.81;5065112;28;20203;-73
2022/05/23 02:36:48;;;;;;;4.15;3.95;;;;;;;17.82;59.79;94603.63;5066743;28;20225;-72
2022/05/23 02:39:16;;;;;;;7.20;4.47;;;;;;;17.80;60.23;94600.34;5064596;28;20205;-71
2022/05/23 02:41:43;;;;;;;5.10;4.70;;;;;;;17.75;60.85;94606.72;5065519;28;20190;-71
2022/05/23 02:44:09;;;;;;;5.57;4.28;;;;;;;17.63;61.02;94591.19;5064361;28;20696;-72
2022/05/23 02:46:37;;;;;;;4.63;4.18;;;;;;;17.50;62.09;94616.09;5064130;28;20236;-72
2022/05/23 02:49:04;;;;;;;4.85;3.83;;;;;;;17.56;61.97;94607.97;5064952;28;20237;-72
2022/05/23 02:51:30;;;;;;;4.13;3.70;;;;;;;17.62;62.02;94606.72;5065228;28;20741;-71
2022/05/23 02:53:58;;;;;;;4.60;4.30;;;;;;;17.79;61.32;94597.88;5064412;28;20264;-71
2022/05/23 02:56:25;;;;;;;3.88;3.63;;;;;;;17.90;61.28;94595.38;5065535;28;20197;-72
2022/05/23 02:58:52;;;;;;;5.22;4.35;;;;;;;18.03;60.95;94611.63;5063900;28;20256;-71
2022/05/23 03:01:19;;;;;;;4.43;4.13;;;;;;;17.92;61.67;94606.38;5063842;28;21102;-72
2022/05/23 03:03:45;;;;;;;4.50;4.15;;;;;;;18.04;61.15;94608.13;5064005;28;20279;-72
2022/05/23 03:06:12;;;;;;;5.05;4.75;;;;;;;18.06;61.06;94597.72;5063873;28;20288;-72
2022/05/23 03:08:39;;;;;;;4.70;4.50;;;;;;;18.14;60.84;94588.53;5062405;28;20258;-73
2022/05/23 03:11:09;;;;;;;6.30;4.53;;;;;;;18.18;60.75;94589.13;5063128;28;20213;-71
2022/05/23 03:13:36;;;;;;;7.57;4.53;;;;;;;18.12;60.73;94580.09;5062146;28;20267;-72
2022/05/23 03:16:06;;;;;;;4.53;4.22;;;;;;;18.22;61.14;94596.53;5063033;28;20210;-73
2022/05/23 03:18:33;;;;;;;4.60;4.30;;;;;;;18.25;60.62;94588.59;5061844;28;20233;-72
2022/05/23 03:21:04;;;;;;;4.65;4.20;;;;;;;18.31;60.72;94580.41;5062753;28;20245;-73
2022/05/23 03:29:03;;;;;;;4.43;4.15;;;;;;;18.62;59.62;94570.53;5062010;28;20244;-70
2022/05/23 03:31:30;;;;;;;5.72;5.20;;;;;;;18.79;58.88;94584.75;5062618;28;21498;-71
2022/05/23 03:33:57;;;;;;;5.63;4.90;;;;;;;18.95;58.67;94595.56;5063301;28;20267;-72
2022/05/23 03:36:24;;;;;;;7.15;5.28;;;;;;;18.87;58.96;94590.16;5063326;28;20939;-71
2022/05/23 03:38:51;;;;;;;7.18;5.13;;;;;;;18.93;58.71;94589.72;5063432;28;22146;-71
2022/05/23 03:41:19;;;;;;;6.22;5.20;;;;;;;18.98;58.47;94590.19;5064054;28;20664;-72
2022/05/23 03:43:46;;;;;;;7.53;5.53;;;;;;;19.03;58.62;94581.19;5062720;28;20206;-72
2022/05/23 03:46:14;;;;;;;8.77;5.45;;;;;;;19.10;58.26;94584.13;5064189;28;20214;-71
2022/05/23 03:48:42;;;;;;;8.70;5.55;;;;;;;19.08;58.69;94595.47;5064067;28;20234;-73
2022/05/23 03:51:09;;;;;;;5.55;4.88;;;;;;;19.01;58.68;94584.81;5063201;28;20215;-73
2022/05/23 03:53:36;;;;;;;6.28;5.25;;;;;;;18.78;60.03;94596.81;5064070;28;20687;-73
2022/05/23 03:56:03;;;;;;;8.75;6.20;;;;;;;18.85;59.68;94598.00;5064132;28;20247;-71
2022/05/23 03:58:31;;;;;;;10.90;8.20;;;;;;;18.93;59.43;94598.25;5064409;28;20206;-73
2022/05/23 04:01:05;;;;;;;28.73;19.25;;;;;;;18.93;59.31;94600.81;5064008;28;20198;-73
2022/05/23 04:03:32;;;;;;;13.18;10.65;;;;;;;18.99;59.15;94597.00;5063909;28;20205;-72
2022/05/23 04:06:00;;;;;;;7.82;7.10;;;;;;;19.07;59.41;94596.41;5064375;28;20205;-72
2022/05/23 04:08:28;;;;;;;6.00;5.50;;;;;;;19.11;58.96;94590.09;5063685;28;20230;-72
2022/05/23 04:10:54;;;;;;;9.80;6.15;;;;;;;19.14;59.10;94584.72;5064034;28;21873;-73
2022/05/23 04:13:21;;;;;;;20.85;15.00;;;;;;;19.00;59.35;94588.34;5062415;28;20202;-72
2022/05/23 04:15:50;;;;;;;14.40;10.00;;;;;;;19.12;59.57;94589.97;5063133;28;20212;-72
2022/05/23 04:18:17;;;;;;;11.40;7.22;;;;;;;19.60;58.59;94588.06;5063410;28;20585;-73
2022/05/23 04:20:45;;;;;;;8.55;6.25;;;;;;;20.16;56.72;94592.34;5063851;28;20230;-72
2022/05/23 04:23:12;;;;;;;8.45;5.72;;;;;;;20.60;56.07;94594.00;5062881;28;20670;-73
2022/05/23 04:25:40;;;;;;;5.43;4.75;;;;;;;20.87;55.02;94591.78;5064379;28;20197;-72
2022/05/23 04:28:07;;;;;;;5.18;4.78;;;;;;;21.02;54.24;94579.41;5063230;28;20650;-72
2022/05/23 04:30:34;;;;;;;6.85;4.43;;;;;;;20.95;54.75;94583.44;5061855;28;20265;-71
2022/05/23 04:35:47;;;;;;;16.17;10.07;;;;;;;20.42;55.73;94590.34;5064004;28;20299;-74
2022/05/23 04:38:13;;;;;;;15.27;11.25;;;;;;;20.10;56.80;94585.91;5063517;28;20278;-71
2022/05/23 04:40:41;;;;;;;14.38;9.70;;;;;;;19.97;56.98;94585.25;5064174;28;20217;-71
2022/05/23 04:43:08;;;;;;;6.10;5.60;;;;;;;19.88;57.28;94586.78;5063207;28;20198;-71
2022/05/23 04:45:35;;;;;;;7.20;5.90;;;;;;;19.63;58.06;94576.72;5063253;28;21495;-71
2022/05/23 04:50:48;;;;;;;14.80;8.43;;;;;;;19.79;57.82;94566.88;5063325;28;20221;-71
2022/05/23 04:53:15;;;;;;;18.63;13.02;;;;;;;19.98;57.80;94561.09;5062805;28;20251;-71
2022/05/23 04:55:43;;;;;;;12.82;9.02;;;;;;;20.17;57.26;94576.75;5063950;28;20205;-71
2022/05/23 04:58:11;;;;;;;5.75;5.10;;;;;;;20.53;56.20;94577.41;5062806;28;20284;-72
2022/05/23 05:00:40;;;;;;;6.75;4.88;;;;;;;20.95;54.90;94573.91;5062863;28;20201;-72
2022/05/23 05:03:08;;;;;;;6.88;5.03;;;;;;;21.37;53.44;94579.91;5062039;28;20202;-71
2022/05/23 05:05:35;;;;;;;10.68;4.60;;;;;;;21.38;53.48;94576.38;5061544;28;20412;-73
2022/05/23 05:08:03;;;;;;;5.03;4.63;;;;;;;21.27;53.88;94567.88;5063118;28;20201;-71
2022/05/23 05:10:31;;;;;;;11.75;4.32;;;;;;;20.99;54.02;94572.72;5063088;28;20735;-71
2022/05/23 05:12:59;;;;;;;6.30;3.60;;;;;;;20.78;54.89;94566.72;5062745;28;20696;-72
2022/05/23 05:15:28;;;;;;;5.68;3.45;;;;;;;20.88;54.09;94551.28;5062706;28;21476;-71
2022/05/23 05:17:55;;;;;;;5.53;3.53;;;;;;;22.52;50.04;94552.72;5062550;28;20198;-71
2022/05/23 05:20:24;;;;;;;8.20;3.85;;;;;;;25.11;43.29;94544.00;5062719;28;20370;-70
2022/05/23 05:22:51;;;;;;;5.13;3.08;;;;;;;27.37;38.72;94547.44;5062112;28;20199;-72
2022/05/23 05:25:19;;;;;;;5.13;2.78;;;;;;;29.11;34.96;94529.63;5062302;28;20254;-72
2022/05/23 05:27:47;;;;;;;4.78;2.58;;;;;;;30.40;32.61;94531.81;5061640;28;20193;-72
2022/05/23 05:30:16;;;;;;;3.75;2.13;;;;;;;31.52;30.93;94525.94;5062738;28;20697;-71
2022/05/23 05:32:50;;;;;;;3.00;2.40;;;;;;;32.11;29.17;94532.38;5062435;28;20274;-72
2022/05/23 05:35:21;;;;;;;2.55;2.33;;;;;;;32.53;28.16;94534.94;5062704;28;20232;-71
2022/05/23 05:37:55;;;;;;;3.33;2.85;;;;;;;32.67;28.19;94541.84;5062344;28;20205;-72
2022/05/23 05:40:25;;;;;;;2.95;2.35;;;;;;;32.86;27.78;94545.56;5062197;28;20268;-72
2022/05/23 05:42:58;;;;;;;3.53;3.10;;;;;;;32.68;27.75;94556.63;5061775;28;20847;-73
2022/05/23 05:45:30;;;;;;;2.80;2.55;;;;;;;30.22;30.31;94548.91;5061151;28;21235;-73
2022/05/23 05:47:58;;;;;;;3.58;2.10;;;;;;;27.86;33.92;94563.00;5062251;28;20212;-73
2022/05/23 05:50:27;;;;;;;2.97;2.30;;;;;;;25.57;37.26;94562.81;5061585;28;20232;-73
2022/05/23 05:52:59;;;;;;;2.13;2.00;;;;;;;24.46;40.14;94571.19;5062836;28;20282;-72
2022/05/23 05:55:26;;;;;;;4.32;2.20;;;;;;;23.51;41.94;94579.25;5062663;28;20258;-71
2022/05/23 05:57:53;;;;;;;3.53;2.33;;;;;;;23.03;43.50;94575.78;5061526;28;20247;-71
2022/05/23 06:00:20;;;;;;;2.25;2.05;;;;;;;22.67;44.64;94585.06;5062453;28;20258;-72
2022/05/23 06:02:49;;;;;;;5.28;2.60;;;;;;;22.41;45.40;94571.00;5063102;28;20292;-72
2022/05/23 06:05:15;;;;;;;2.95;2.00;;;;;;;21.99;46.94;94560.00;5061233;28;20190;-71
2022/05/23 06:13:12;;;;;;;5.25;2.75;;;;;;;22.44;46.93;94565.56;5062616;28;20217;-72
2022/05/23 06:15:38;;;;;;;7.93;3.90;;;;;;;22.91;48.37;94565.72;5062587;28;20201;-72
2022/05/23 06:18:05;;;;;;;5.40;3.67;;;;;;;23.80;46.65;94563.59;5063769;28;20270;-72
2022/05/23 06:20:32;;;;;;;4.15;3.85;;;;;;;24.74;44.75;94560.59;5062606;28;20230;-72
2022/05/23 06:23:01;;;;;;;5.18;3.70;;;;;;;25.93;41.88;94560.91;5062622;28;20198;-73
2022/05/23 06:25:29;;;;;;;11.57;3.58;;;;;;;28.00;37.61;94555.28;5062083;28;20205;-72
2022/05/23 06:27:56;;;;;;;3.92;2.47;;;;;;;29.11;35.12;94550.53;5061804;28;20198;-72
2022/05/23 06:30:23;;;;;;;3.53;2.83;;;;;;;30.02;32.80;94538.19;5060938;28;20257;-71
2022/05/23 06:32:51;;;;;;;3.75;2.42;;;;;;;30.37;32.27;94541.84;5061540;28;20225;-71
2022/05/23 06:35:18;;;;;;;7.80;2.95;;;;;;;30.12;32.07;94541.34;5062535;28;20193;-72
2022/05/23 06:37:45;;;;;;;2.95;2.70;;;;;;;29.77;32.38;94521.94;5065548;28;20334;-72
2022/05/23 06:40:14;;;;;;;3.33;2.75;;;;;;;29.05;33.15;94529.50;5065248;28;20213;-72
2022/05/23 06:42:43;;;;;;;14.50;5.20;;;;;;;29.58;33.18;94515.44;5066561;28;20267;-73
2022/05/23 06:45:10;;;;;;;9.40;3.28;;;;;;;29.72;33.06;94525.09;5065775;28;20669;-72
2022/05/23 06:47:37;;;;;;;4.25;3.83;;;;;;;29.91;32.15;94526.34;5065362;28;21503;-72
2022/05/23 06:50:05;;;;;;;3.97;2.75;;;;;;;29.63;31.91;94512.28;5064163;28;20234;-72
2022/05/23 06:52:33;;;;;;;8.52;4.20;;;;;;;28.72;33.48;94523.69;5065401;28;20625;-72
2022/05/23 06:55:00;;;;;;;7.30;3.45;;;;;;;28.00;33.50;94517.88;5064777;28;20590;-71
2022/05/23 06:57:27;;;;;;;3.38;3.08;;;;;;;27.71;34.63;94524.56;5065163;28;20202;-72
2022/05/23 06:59:55;;;;;;;7.78;3.58;;;;;;;28.05;34.59;94515.59;5065268;28;20198;-72
2022/05/23 07:02:22;;;;;;;3.75;2.97;;;;;;;27.84;35.20;94529.22;5065095;28;20266;-72
2022/05/23 07:13:02;;;;;;;4.78;3.83;;;;;;;27.10;35.64;94517.31;5064609;28;20256;-71
2022/05/23 07:15:35;;;;;;;4.70;3.35;;;;;;;26.75;36.32;94516.66;5065135;28;20332;-71
2022/05/23 07:18:03;;;;;;;3.33;3.10;;;;;;;26.63;36.43;94517.16;5063864;28;20229;-72
2022/05/23 07:20:30;;;;;;;4.05;2.95;;;;;;;26.38;36.07;94524.13;5065005;28;20229;-72
2022/05/23 07:22:57;;;;;;;9.55;2.67;;;;;;;25.80;38.00;94524.88;5065003;28;20577;-72
2022/05/23 07:25:24;;;;;;;5.40;2.70;;;;;;;25.70;38.15;94525.03;5063014;28;21244;-74
2022/05/23 07:27:51;;;;;;;6.90;2.90;;;;;;;25.83;37.95;94513.34;5064710;28;20291;-73
2022/05/23 07:30:19;;;;;;;3.33;2.63;;;;;;;25.88;36.05;94521.50;5064085;28;20255;-73
2022/05/23 07:32:48;;;;;;;3.58;1.60;;;;;;;25.45;35.29;94523.25;5064701;28;20240;-73
2022/05/23 07:35:15;;;;;;;1.73;1.63;;;;;;;25.01;35.95;94531.09;5064971;28;20198;-72
2022/05/23 07:37:41;;;;;;;5.70;2.17;;;;;;;24.61;36.09;94509.97;5060592;28;20194;-71
2022/05/23 07:40:10;;;;;;;2.25;1.73;;;;;;;24.40;36.59;94531.03;5064130;28;20247;-72
2022/05/23 07:42:36;;;;;;;2.47;2.15;;;;;;;24.31;37.18;94524.94;5063728;28;20206;-72
2022/05/23 07:45:04;;;;;;;2.75;2.38;;;;;;;24.51;37.09;94504.00;5063968;28;20225;-71
2022/05/23 07:47:32;;;;;;;22.75;12.70;;;;;;;24.49;36.47;94527.56;5062241;28;20205;-73
2022/05/23 07:50:00;;;;;;;4.60;4.05;;;;;;;24.66;35.87;94523.31;5063333;28;20240;-72
2022/05/23 07:52:27;;;;;;;6.75;4.63;;;;;;;24.52;36.20;94531.63;5063690;28;20194;-72
2022/05/23 08:00:32;;;;;;;6.05;2.22;;;;;;;24.68;36.48;94536.97;5064426;28;20283;-73
2022/05/23 08:03:00;;;;;;;3.42;2.20;;;;;;;24.68;35.42;94517.00;5061882;28;20336;-74
2022/05/23 08:05:28;;;;;;;5.70;2.13;;;;;;;24.94;36.36;94526.63;5063281;28;20201;-72
2022/05/23 08:07:55;;;;;;;10.60;4.05;;;;;;;25.17;35.61;94516.56;5062454;28;20202;-74
2022/05/23 08:10:22;;;;;;;5.88;2.72;;;;;;;25.35;34.99;94517.31;5061636;28;20298;-70
2022/05/23 08:12:52;;;;;;;4.10;2.10;;;;;;;25.93;34.71;94516.66;5062494;28;20201;-75
2022/05/23 08:15:20;;;;;;;3.25;2.13;;;;;;;26.19;34.43;94514.78;5062782;28;20205;-74
2022/05/23 08:17:47;;;;;;;7.80;3.97;;;;;;;26.34;33.91;94513.19;5062762;28;20263;-74
2022/05/23 08:20:14;;;;;;;4.55;1.95;;;;;;;26.40;33.03;94517.78;5063342;28;22313;-74
2022/05/23 08:22:42;;;;;;;3.30;2.47;;;;;;;26.27;33.79;94514.78;5062348;28;20201;-72
2022/05/23 08:25:09;;;;;;;2.75;2.35;;;;;;;26.52;33.62;94520.06;5063010;28;20274;-71
2022/05/23 08:27:36;;;;;;;1.90;1.80;;;;;;;26.53;32.99;94522.50;5061834;28;20235;-72
2022/05/23 08:30:04;;;;;;;4.45;1.60;;;;;;;26.30;32.97;94511.06;5061762;28;20233;-73
2022/05/23 08:32:30;;;;;;;2.47;1.73;;;;;;;26.10;32.66;94515.72;5062957;28;20601;-74
2022/05/23 08:34:57;;;;;;;6.97;1.80;;;;;;;26.03;33.29;94512.94;5063680;28;20566;-73
2022/05/23 08:37:24;;;;;;;2.60;1.60;;;;;;;26.17;33.66;94510.69;5061677;28;20221;-71
2022/05/23 08:39:52;;;;;;;2.78;1.50;;;;;;;26.37;32.32;94506.84;5062980;28;20683;-72
2022/05/23 08:42:30;;;;;;;2.20;2.10;;;;;;;26.50;32.83;94507.19;5062434;28;20208;-72
2022/05/23 08:45:07;;;;;;;7.40;4.35;;;;;;;26.30;33.04;94511.06;5062880;28;20242;-72
2022/05/23 08:47:44;;;;;;;2.78;2.58;;;;;;;26.14;32.44;94518.81;5062216;28;20204;-72
2022/05/23 08:50:15;;;;;;;3.45;2.67;;;;;;;25.93;32.82;94520.06;5062401;28;20248;-73
2022/05/23 08:52:47;;;;;;;4.03;2.22;;;;;;;25.59;32.85;94511.44;5061767;28;20217;-73
2022/05/23 08:55:20;;;;;;;3.50;2.60;;;;;;;25.46;33.53;94511.06;5061950;28;20267;-72
2022/05/23 08:57:56;;;;;;;4.40;1.95;;;;;;;25.41;33.60;94509.72;5060778;28;20329;-72
2022/05/23 09:00:27;;;;;;;5.47;2.28;;;;;;;25.35;32.54;94520.75;5062855;28;20208;-72
2022/05/23 09:02:59;;;;;;;2.72;1.75;;;;;;;25.47;33.11;94510.91;5061355;28;20586;-73
2022/05/23 09:05:32;;;;;;;3.25;1.90;;;;;;;25.21;33.28;94503.13;5060609;28;20206;-72
2022/05/23 09:08:02;;;;;;;5.05;2.80;;;;;;;24.95;32.82;94492.72;5062053;28;20359;-72
2022/05/23 09:10:35;;;;;;;6.30;2.50;;;;;;;24.53;32.63;94507.28;5061980;28;20278;-73
2022/05/23 09:13:01;;;;;;;7.88;4.40;;;;;;;24.42;33.69;94501.38;5062803;28;20198;-72
2022/05/23 09:15:28;;;;;;;10.85;8.10;;;;;;;24.45;34.34;94502.84;5062168;28;20286;-74
2022/05/23 09:17:59;;;;;;;3.47;3.17;;;;;;;24.70;34.19;94503.88;5061445;28;20679;-71
2022/05/23 09:20:34;;;;;;;5.55;5.05;;;;;;;24.82;33.52;94492.25;5061132;28;20268;-73
2022/05/23 09:23:06;;;;;;;9.15;5.90;;;;;;;24.90;34.17;94501.91;5060214;28;20884;-72
2022/05/23 09:25:34;;;;;;;5.47;5.05;;;;;;;24.94;34.04;94485.84;5062166;28;20233;-74
2022/05/23 09:28:14;;;;;;;7.45;4.40;;;;;;;24.75;34.70;94479.03;5060809;28;20661;-73
2022/05/23 09:30:42;;;;;;;6.95;4.90;;;;;;;24.64;36.12;94479.31;5062273;28;20244;-71
2022/05/23 09:33:12;;;;;;;4.10;3.80;;;;;;;24.52;36.13;94485.69;5061594;28;20706;-72
2022/05/23 09:35:51;;;;;;;3.85;3.33;;;;;;;24.62;36.13;94485.59;5059015;28;20642;-73
2022/05/23 09:38:20;;;;;;;5.03;3.35;;;;;;;24.87;35.28;94490.03;5062333;28;20259;-71
2022/05/23 09:40:48;;;;;;;3.40;3.10;;;;;;;25.01;34.07;94478.28;5058983;28;20198;-71
2022/05/23 09:49:04;;;;;;;2.92;2.70;;;;;;;25.17;34.34;94470.59;5061505;28;20664;-72
2022/05/23 09:51:31;;;;;;;3.97;3.55;;;;;;;25.25;34.54;94459.38;5061598;28;20233;-72
2022/05/23 09:54:02;;;;;;;5.65;3.05;;;;;;;25.50;34.69;94476.75;5061556;28;20330;-73
2022/05/23 09:56:38;;;;;;;3.47;1.83;;;;;;;25.38;33.66;94473.63;5062108;28;20233;-77
2022/05/23 09:59:12;;;;;;;4.07;1.90;;;;;;;25.42;34.47;94474.13;5064653;28;20737;-75
2022/05/23 10:01:38;;;;;;;2.55;2.00;;;;;;;25.60;34.72;94461.84;5067043;28;20255;-78
2022/05/23 10:04:15;;;;;;;3.53;2.13;;;;;;;25.69;35.11;94465.31;5068294;28;20194;-76
2022/05/23 10:06:48;;;;;;;6.45;5.90;;;;;;;25.92;34.40;94461.16;5069907;28;20622;-77
2022/05/23 10:09:25;;;;;;;2.63;1.92;;;;;;;25.99;34.36;94466.53;5067945;28;20554;-75
2022/05/23 10:11:56;;;;;;;2.10;1.60;;;;;;;25.96;34.06;94469.47;5073420;28;20218;-80
2022/05/23 10:14:25;;;;;;;1.83;1.70;;;;;;;25.98;33.76;94457.13;5073456;28;20194;-76
2022/05/23 10:16:56;;;;;;;24.98;16.05;;;;;;;25.93;33.57;94449.78;5091056;28;20201;-74
2022/05/23 10:19:32;;;;;;;9.55;2.70;;;;;;;25.79;33.23;94455.59;5090920;28;20197;-76
2022/05/23 10:22:16;;;;;;;2.03;1.92;;;;;;;25.57;33.36;94451.75;5091122;28;20240;-77
2022/05/23 10:24:52;;;;;;;1.70;1.60;;;;;;;25.73;33.58;94451.84;5090469;28;20656;-75
2022/05/23 10:27:36;;;;;;;2.72;1.70;;;;;;;25.75;33.11;94455.09;5071870;28;20232;-77
2022/05/23 10:30:06;;;;;;;1.85;1.70;;;;;;;25.92;33.38;94452.53;5071957;28;20205;-80
2022/05/23 10:32:39;;;;;;;2.50;1.90;;;;;;;26.08;31.81;94445.56;5071913;28;20248;-78
2022/05/23 10:35:16;;;;;;;1.92;1.83;;;;;;;26.10;32.09;94448.00;5074455;28;20189;-77
2022/05/23 10:37:44;;;;;;;1.77;1.67;;;;;;;26.15;31.96;94443.16;5092870;28;20193;-78
2022/05/23 10:43:09;;;;;;;1.88;1.77;;;;;;;26.82;31.31;94443.81;5077462;28;20204;-76
2022/05/23 10:45:41;;;;;;;3.92;1.92;;;;;;;26.81;31.38;94421.34;5080891;28;20205;-79
2022/05/23 10:48:23;;;;;;;1.52;1.42;;;;;;;26.60;31.05;94439.28;5094210;28;20289;-76
2022/05/23 10:50:55;;;;;;;3.20;2.30;;;;;;;26.60;31.64;94441.88;5092603;28;20225;-76
2022/05/23 10:53:37;;;;;;;2.60;2.15;;;;;;;26.47;31.31;94424.16;5094249;28;20198;-77
2022/05/23 10:56:13;;;;;;;3.30;2.00;;;;;;;26.28;31.66;94417.41;5092624;28;20685;-77
2022/05/23 10:58:45;;;;;;;2.38;2.00;;;;;;;26.36;32.40;94422.69;5094496;28;20197;-78
2022/05/23 11:01:24;;;;;;;4.97;1.58;;;;;;;26.37;31.99;94416.50;5092690;28;20285;-77
2022/05/23 11:03:58;;;;;;;2.08;1.65;;;;;;;26.31;31.87;94430.16;5093396;28;20201;-76
2022/05/23 11:06:34;;;;;;;3.20;1.70;;;;;;;26.51;31.43;94425.44;5078228;28;20739;-78
2022/05/23 11:09:12;;;;;;;1.50;1.40;;;;;;;26.29;31.31;94420.84;5073472;28;20190;-77
2022/05/23 11:11:54;;;;;;;2.15;1.85;;;;;;;26.12;31.85;94420.03;5073877;28;20336;-77
2022/05/23 11:14:32;;;;;;;1.65;1.55;;;;;;;26.08;32.66;94405.69;5073234;28;20197;-78
2022/05/23 11:17:12;;;;;;;1.67;1.60;;;;;;;26.10;32.63;94408.94;5073771;28;20237;-78
2022/05/23 11:19:57;;;;;;;1.63;1.52;;;;;;;26.33;32.44;94412.56;5072994;28;20191;-79
2022/05/23 11:22:29;;;;;;;1.70;1.60;;;;;;;26.39;31.97;94414.53;5072392;28;20622;-78
2022/05/23 11:25:20;;;;;;;5.60;1.95;;;;;;;26.21;31.84;94416.47;5073236;28;20214;-76
2022/05/23 11:33:46;;;;;;;3.53;1.35;;;;;;;26.39;31.73;94405.91;5072382;28;20225;-75
2022/05/23 11:36:23;;;;;;;3.03;1.40;;;;;;;26.48;32.92;94410.13;5073098;28;20757;-75
2022/05/23 11:38:51;;;;;;;2.10;1.60;;;;;;;26.56;31.92;94412.72;5072997;28;20201;-77
2022/05/23 11:41:39;;;;;;;3.22;1.88;;;;;;;26.66;32.16;94409.97;5072809;28;20264;-76
2022/05/23 11:44:31;;;;;;;1.63;1.50;;;;;;;26.87;31.66;94410.25;5070935;28;20517;-76
2022/05/23 11:47:18;;;;;;;2.88;1.90;;;;;;;26.89;31.42;94416.13;5070802;28;20726;-76
2022/05/23 11:49:48;;;;;;;1.60;1.50;;;;;;;26.86;31.50;94413.84;5071125;28;20705;-75
2022/05/23 11:52:26;;;;;;;2.97;1.50;;;;;;;26.92;32.17;94410.56;5070236;28;20324;-76
2022/05/23 11:54:53;;;;;;;1.77;1.45;;;;;;;27.04;31.69;94414.47;5071060;28;20182;-76
2022/05/23 11:57:36;;;;;;;4.65;2.00;;;;;;;27.06;30.70;94420.34;5070354;28;20198;-80
2022/05/23 12:00:31;;;;;;;3.90;1.85;;;;;;;26.82;31.02;94404.72;5071914;28;20206;-76
2022/05/23 12:03:10;;;;;;;5.00;2.22;;;;;;;26.66;31.13;94420.38;5065417;28;20190;-77
2022/05/23 12:05:37;;;;;;;3.28;2.10;;;;;;;26.76;31.69;94413.19;5078167;28;20213;-76
2022/05/23 12:08:07;;;;;;;2.83;1.80;;;;;;;26.77;32.01;94409.59;5090420;28;20254;-78
2022/05/23 12:10:43;;;;;;;3.20;1.88;;;;;;;26.71;31.98;94405.06;5082661;28;20198;-75
2022/05/23 12:13:48;;;;;;;3.95;1.65;;;;;;;26.72;31.34;94402.31;5069785;28;20589;-77
2022/05/23 12:16:39;;;;;;;4.35;1.50;;;;;;;26.78;32.22;94404.22;5008144;28;20210;-79
2022/05/23 12:19:35;;;;;;;2.13;1.92;;;;;;;26.85;31.58;94401.78;5007632;28;20219;-77
2022/05/23 12:22:22;;;;;;;6.45;1.60;;;;;;;26.82;30.94;94399.50;5062475;28;20226;-76
2022/05/23 12:25:15;;;;;;;2.67;2.33;;;;;;;26.99;31.63;94402.91;5072251;28;20735;-76
2022/05/23 12:28:05;;;;;;;1.60;1.50;;;;;;;26.99;31.05;94390.69;5071860;28;20222;-78
2022/05/23 12:30:41;;;;;;;3.58;1.70;;;;;;;26.76;31.21;94395.75;5072310;28;20205;-76
2022/05/23 12:33:21;;;;;;;3.42;1.88;;;;;;;26.83;31.66;94388.09;5070561;28;20218;-76
2022/05/23 12:35:59;;;;;;;5.63;1.20;;;;;;;26.68;31.32;94400.19;5071960;28;20240;-77
2022/05/23 12:38:41;;;;;;;2.40;1.63;;;;;;;26.71;31.64;94395.47;5071633;28;20198;-75
2022/05/23 12:41:18;;;;;;;3.85;1.80;;;;;;;26.80;32.24;94400.63;5071802;28;20289;-75
2022/05/23 12:44:05;;;;;;;2.53;2.42;;;;;;;26.78;31.37;94406.03;5071553;28;20657;-78